createdAt,value
2023-03-21T05:00:11.271Z,5.53
2023-03-21T05:03:19.763Z,5.07
2023-03-21T05:06:23.360Z,5.20
2023-03-21T05:09:26.540Z,5.10
2023-03-21T05:12:28.833Z,5.37
2023-03-21T05:15:31.259Z,5.70
2023-03-21T05:18:34.744Z,5.37
2023-03-21T05:21:41.332Z,5.53
2023-03-21T05:24:50.066Z,5.75
2023-03-21T05:27:56.359Z,6.07
2023-03-21T05:30:59.007Z,5.80
2023-03-21T05:34:02.066Z,5.47
2023-03-21T05:37:04.695Z,5.60
2023-03-21T05:40:11.187Z,6.30
2023-03-21T05:43:13.692Z,6.55
2023-03-21T05:46:16.209Z,6.53
2023-03-21T05:49:18.549Z,5.65
2023-03-21T05:52:22.070Z,6.30
2023-03-21T05:55:24.732Z,6.47
2023-03-21T05:58:28.001Z,5.97
2023-03-21T06:01:30.435Z,5.62
2023-03-21T06:04:33.703Z,5.93
2023-03-21T06:07:37.008Z,5.80
2023-03-21T06:10:40.028Z,5.95
2023-03-21T06:13:43.421Z,5.95
2023-03-21T06:16:45.993Z,5.70
2023-03-21T06:19:48.504Z,5.75
2023-03-21T06:22:51.287Z,5.45
2023-03-21T06:25:53.543Z,5.93
2023-03-21T06:28:56.138Z,6.53
2023-03-21T06:31:58.526Z,6.07
2023-03-21T06:35:01.021Z,5.85
2023-03-21T06:38:03.843Z,6.10
2023-03-21T06:41:07.885Z,5.87
2023-03-21T06:44:11.415Z,5.95
2023-03-21T06:47:16.271Z,6.28
2023-03-21T06:50:19.068Z,6.22
2023-03-21T06:53:27.443Z,5.90
2023-03-21T06:56:32.724Z,6.00
2023-03-21T06:59:37.244Z,6.28
2023-03-21T07:02:39.948Z,6.28
2023-03-21T07:05:43.303Z,6.15
2023-03-21T07:08:47.895Z,6.37
2023-03-21T07:11:53.649Z,6.45
2023-03-21T07:14:56.002Z,7.00
2023-03-21T07:17:58.743Z,6.75
2023-03-21T07:21:00.887Z,6.05
2023-03-21T07:24:03.364Z,6.25
2023-03-21T07:27:05.631Z,6.10
2023-03-21T07:30:09.397Z,6.43
2023-03-21T07:33:12.813Z,6.05
2023-03-21T07:36:16.708Z,5.80
2023-03-21T07:39:21.510Z,5.37
2023-03-21T07:42:24.463Z,5.55
2023-03-21T07:45:28.158Z,5.40
2023-03-21T07:48:32.165Z,4.87
2023-03-21T07:51:37.592Z,5.22
2023-03-21T07:54:39.939Z,5.45
2023-03-21T07:57:42.143Z,5.37
2023-03-21T08:00:44.509Z,5.00
2023-03-21T08:03:48.088Z,5.10
2023-03-21T08:06:52.149Z,4.70
2023-03-21T08:09:54.782Z,4.78
2023-03-21T08:12:57.372Z,4.43
2023-03-21T08:16:00.832Z,3.92
2023-03-21T08:19:03.739Z,3.60
2023-03-21T08:22:06.635Z,3.37
2023-03-21T08:25:13.144Z,3.00
2023-03-21T08:28:15.632Z,2.80
2023-03-21T08:31:18.161Z,3.50
2023-03-21T08:34:20.860Z,3.10
2023-03-21T08:37:23.052Z,3.45
2023-03-21T08:40:25.688Z,3.92
2023-03-21T08:43:28.740Z,3.20
2023-03-21T08:46:31.470Z,3.40
2023-03-21T08:49:35.722Z,3.10
2023-03-21T08:52:38.115Z,3.08
2023-03-21T08:55:40.895Z,3.00
2023-03-21T08:58:44.666Z,3.10
2023-03-21T09:01:47.110Z,3.50
2023-03-21T09:04:53.102Z,3.45
2023-03-21T09:07:55.811Z,3.25
2023-03-21T09:10:58.253Z,4.50
2023-03-21T09:14:00.844Z,3.95
2023-03-21T09:17:03.506Z,3.30
2023-03-21T09:20:11.244Z,3.60
2023-03-21T09:23:14.987Z,3.35
2023-03-21T09:26:19.088Z,2.62
2023-03-21T09:29:21.635Z,3.35
2023-03-21T09:32:23.923Z,3.55
2023-03-21T09:35:27.149Z,3.17
2023-03-21T09:38:30.997Z,2.72
2023-03-21T09:42:15.530Z,2.70
2023-03-21T09:45:34.063Z,2.70
2023-03-21T09:48:56.812Z,2.85
2023-03-21T09:52:05.552Z,3.40
2023-03-21T09:55:20.435Z,3.90
2023-03-21T09:58:31.028Z,3.08
2023-03-21T10:01:41.637Z,2.60
2023-03-21T10:04:46.436Z,3.10
2023-03-21T10:08:07.038Z,2.85
2023-03-21T10:11:12.643Z,2.05
2023-03-21T10:14:36.342Z,2.13
2023-03-21T10:17:43.583Z,2.15
2023-03-21T10:20:45.875Z,2.40
2023-03-21T10:23:51.845Z,2.22
2023-03-21T10:26:56.015Z,2.00
2023-03-21T10:30:00.946Z,2.05
2023-03-21T10:33:09.545Z,1.92
2023-03-21T10:36:17.700Z,2.72
2023-03-21T10:39:41.939Z,2.28
2023-03-21T10:42:44.472Z,2.08
2023-03-21T10:45:47.921Z,1.92
2023-03-21T10:48:54.222Z,1.95
2023-03-21T10:52:03.439Z,1.58
2023-03-21T10:55:17.136Z,1.85
2023-03-21T10:58:24.963Z,2.00
2023-03-21T11:01:40.703Z,2.20
2023-03-21T11:04:44.420Z,2.12
2023-03-21T11:07:46.868Z,2.47
2023-03-21T11:11:00.657Z,2.70
2023-03-21T11:14:09.187Z,3.62
2023-03-21T11:17:17.323Z,3.03
2023-03-21T11:20:21.076Z,2.90
2023-03-21T11:23:28.636Z,2.67
2023-03-21T11:26:36.869Z,2.37
2023-03-21T11:29:45.338Z,2.55
2023-03-21T11:32:53.909Z,2.37
2023-03-21T11:36:22.702Z,2.67
2023-03-21T11:39:33.203Z,3.00
2023-03-21T11:42:44.781Z,2.70
2023-03-21T11:45:58.319Z,2.50
2023-03-21T11:49:01.622Z,3.03
2023-03-21T11:52:33.917Z,2.50
2023-03-21T11:55:59.891Z,3.35
2023-03-21T11:59:28.663Z,2.33
2023-03-21T12:02:58.081Z,2.10
2023-03-21T12:06:03.501Z,2.05
2023-03-21T12:09:23.240Z,2.28
2023-03-21T12:12:51.099Z,3.00
2023-03-21T12:16:15.263Z,2.60
2023-03-21T12:19:46.906Z,2.67
2023-03-21T12:23:15.457Z,3.60
2023-03-21T12:26:24.800Z,3.60
2023-03-21T12:29:51.422Z,3.60
2023-03-21T12:33:21.277Z,3.50
2023-03-21T12:36:34.512Z,3.70
2023-03-21T12:39:40.265Z,3.92
2023-03-21T12:43:20.863Z,4.45
2023-03-21T12:46:42.139Z,4.25
2023-03-21T12:49:55.258Z,3.85
2023-03-21T12:53:06.087Z,4.68
2023-03-21T12:56:13.324Z,4.32
2023-03-21T12:59:33.719Z,3.70
2023-03-21T13:03:03.160Z,3.70
2023-03-21T13:06:09.497Z,4.18
2023-03-21T13:09:28.595Z,3.78
2023-03-21T13:12:49.154Z,3.62
2023-03-21T13:16:18.166Z,3.30
2023-03-21T13:19:27.102Z,3.30
2023-03-21T13:22:30.904Z,2.67
2023-03-21T13:25:38.944Z,2.50
2023-03-21T13:28:41.778Z,2.60
2023-03-21T13:31:52.041Z,3.15
2023-03-21T13:35:12.892Z,2.00
2023-03-21T13:38:25.497Z,2.55
2023-03-21T13:41:39.290Z,2.00
2023-03-21T13:44:50.294Z,2.45
2023-03-21T13:48:07.407Z,2.90
2023-03-21T13:51:11.387Z,2.60
2023-03-21T13:54:13.440Z,2.83
2023-03-21T13:57:30.452Z,2.42
2023-03-21T14:00:39.723Z,2.72
2023-03-21T14:03:45.369Z,2.22
2023-03-21T14:07:03.266Z,2.20
2023-03-21T14:10:17.133Z,2.05
2023-03-21T14:13:22.732Z,3.42
2023-03-21T14:16:28.532Z,2.60
2023-03-21T14:19:34.699Z,2.50
2023-03-21T14:22:38.675Z,2.65
2023-03-21T14:25:47.588Z,2.30
2023-03-21T14:28:51.800Z,2.80
2023-03-21T14:31:56.526Z,2.15
2023-03-21T14:35:01.122Z,2.15
2023-03-21T14:38:18.125Z,2.22
2023-03-21T14:41:26.673Z,2.20
2023-03-21T14:44:53.606Z,2.20
2023-03-21T14:48:01.124Z,1.95
2023-03-21T14:51:09.218Z,1.95
2023-03-21T14:54:14.238Z,2.58
2023-03-21T14:57:23.009Z,2.65
2023-03-21T15:00:28.858Z,2.40
2023-03-21T15:03:32.509Z,2.15
2023-03-21T15:06:48.825Z,2.40
2023-03-21T15:09:56.836Z,2.47
2023-03-21T15:13:03.027Z,2.40
2023-03-21T15:16:05.948Z,2.08
2023-03-21T15:19:16.305Z,1.90
2023-03-21T15:22:30.993Z,2.20
2023-03-21T15:25:36.670Z,2.33
2023-03-21T15:28:39.300Z,3.05
2023-03-21T15:31:42.169Z,2.62
2023-03-21T15:34:46.050Z,2.80
2023-03-21T15:37:57.013Z,3.15
2023-03-21T15:41:19.483Z,3.65
2023-03-21T15:44:22.465Z,4.10
2023-03-21T15:47:50.577Z,3.33
2023-03-21T15:50:55.948Z,3.83
2023-03-21T15:53:58.048Z,3.80
2023-03-21T15:57:15.943Z,3.90
2023-03-21T16:00:21.149Z,3.60
2023-03-21T16:03:27.299Z,3.47
2023-03-21T16:06:36.470Z,3.85
2023-03-21T16:09:43.263Z,3.80
2023-03-21T16:12:45.472Z,3.30
2023-03-21T16:15:47.834Z,4.03
2023-03-21T16:18:50.623Z,3.67
2023-03-21T16:21:53.383Z,3.78
2023-03-21T16:24:55.587Z,3.70
2023-03-21T16:27:58.055Z,3.42
2023-03-21T16:31:00.143Z,4.50
2023-03-21T16:34:04.486Z,3.47
2023-03-21T16:37:06.613Z,3.62
2023-03-21T16:40:18.632Z,3.65
2023-03-21T16:43:20.788Z,3.25
2023-03-21T16:46:25.786Z,3.58
2023-03-21T16:49:28.174Z,3.85
2023-03-21T16:52:30.570Z,3.47
2023-03-21T16:55:33.837Z,4.35
2023-03-21T16:58:36.246Z,4.50
2023-03-21T17:01:40.272Z,3.90
2023-03-21T17:04:44.477Z,3.92
2023-03-21T17:07:47.098Z,4.35
2023-03-21T17:10:49.575Z,3.83
